createdAt,value
2022-08-04T00:02:59.300Z,21.9
2022-08-04T00:07:59.571Z,21.7
2022-08-04T00:12:58.752Z,21.7
2022-08-04T00:17:58.753Z,21.6
2022-08-04T00:22:58.765Z,21.6
2022-08-04T00:27:58.852Z,21.3
2022-08-04T00:32:58.963Z,21.3
2022-08-04T00:37:59.528Z,21.2
2022-08-04T00:42:59.796Z,21.2
2022-08-04T00:47:58.913Z,21.1
2022-08-04T00:52:59.109Z,21.1
2022-08-04T00:57:59.244Z,20.9
2022-08-04T01:02:59.186Z,20.9
2022-08-04T01:07:59.345Z,20.9
2022-08-04T01:12:59.397Z,20.9
2022-08-04T01:17:58.646Z,20.8
2022-08-04T01:22:58.727Z,20.8
2022-08-04T01:27:59.862Z,20.7
2022-08-04T01:32:59.000Z,20.7
2022-08-04T01:37:59.114Z,20.6
2022-08-04T01:42:59.246Z,20.6
2022-08-04T01:47:59.522Z,20.6
2022-08-04T01:52:59.598Z,20.6
2022-08-04T01:57:59.118Z,20.4
2022-08-04T02:02:59.570Z,20.4
2022-08-04T02:07:58.787Z,20.2
2022-08-04T02:12:59.014Z,20.2
2022-08-04T02:18:00.629Z,20.1
2022-08-04T02:22:58.790Z,20.1
2022-08-04T02:28:01.238Z,19.9
2022-08-04T02:32:59.730Z,19.9
2022-08-04T02:37:58.879Z,19.8
2022-08-04T02:42:59.225Z,19.8
2022-08-04T02:48:31.623Z,19.7
2022-08-04T02:52:59.066Z,19.7
2022-08-04T02:57:58.922Z,19.6
2022-08-04T03:02:59.046Z,19.6
2022-08-04T03:07:59.552Z,19.5
2022-08-04T03:12:59.433Z,19.5
2022-08-04T03:17:59.093Z,19.4
2022-08-04T03:23:14.013Z,19.4
2022-08-04T03:27:59.047Z,19.2
2022-08-04T03:32:58.728Z,19.2
2022-08-04T03:37:59.298Z,19.1
2022-08-04T03:42:59.002Z,19.1
2022-08-04T03:47:59.329Z,19.1
2022-08-04T03:52:59.166Z,19.1
2022-08-04T03:57:59.370Z,19
2022-08-04T04:02:58.840Z,19
2022-08-04T04:08:04.352Z,18.9
2022-08-04T04:12:59.443Z,18.9
2022-08-04T04:17:59.595Z,18.9
2022-08-04T04:23:00.154Z,18.9
2022-08-04T04:28:47.123Z,18.9
2022-08-04T04:32:58.825Z,18.9
2022-08-04T04:37:59.322Z,18.9
2022-08-04T04:42:59.569Z,18.9
2022-08-04T04:48:11.166Z,19
2022-08-04T04:52:59.236Z,19
2022-08-04T04:57:59.406Z,19
2022-08-04T05:03:07.266Z,19
2022-08-04T05:07:58.953Z,19.1
2022-08-04T05:14:41.047Z,19.1
2022-08-04T05:17:59.486Z,19.3
2022-08-04T05:22:59.770Z,19.3
2022-08-04T05:27:59.083Z,19.6
2022-08-04T05:33:00.351Z,19.6
2022-08-04T05:38:02.006Z,19.9
2022-08-04T05:42:59.151Z,19.9
2022-08-04T05:47:59.519Z,20.2
2022-08-04T05:53:01.637Z,20.2
2022-08-04T05:57:59.188Z,20.4
2022-08-04T06:02:59.295Z,20.4
2022-08-04T06:08:14.248Z,20.8
2022-08-04T06:12:59.586Z,20.8
2022-08-04T06:20:19.103Z,21.4
2022-08-04T06:22:59.657Z,21.4
2022-08-04T06:27:58.810Z,22.3
2022-08-04T06:33:05.391Z,22.3
2022-08-04T06:38:02.190Z,23.1
2022-08-04T06:42:59.638Z,23.1
2022-08-04T06:47:58.888Z,23.8
2022-08-04T06:52:59.006Z,23.8
2022-08-04T06:58:03.870Z,23.9
2022-08-04T07:02:59.004Z,23.9
2022-08-04T07:07:59.481Z,24.4
2022-08-04T07:12:59.838Z,24.4
2022-08-04T07:17:59.223Z,24.9
2022-08-04T07:22:59.423Z,24.9
2022-08-04T07:27:59.762Z,25.4
2022-08-04T07:32:59.606Z,25.4
2022-08-04T07:38:01.660Z,25.9
2022-08-04T07:42:59.534Z,25.9
2022-08-04T07:48:06.108Z,26.4
2022-08-04T07:53:56.599Z,26.4
2022-08-04T07:57:59.141Z,26.4
2022-08-04T08:02:59.450Z,26.4
2022-08-04T08:07:59.834Z,26.4
2022-08-04T08:12:59.057Z,26.4
2022-08-04T08:18:01.179Z,26.4
2022-08-04T08:22:59.844Z,26.4
2022-08-04T08:27:59.089Z,26.4
2022-08-04T08:32:59.207Z,26.4
2022-08-04T08:37:59.963Z,26.4
2022-08-04T08:44:06.962Z,26.4
